sensor_id;sensor_type;location;lat;lon;timestamp;P1;durP1;ratioP1;P2;durP2;ratioP2
83719;SDS011;73702;49.668;8.544;2024-01-15T00:00:54;59.05;;;11.02;;
83719;SDS011;73702;49.668;8.544;2024-01-15T00:03:21;53.13;;;11.35;;
83719;SDS011;73702;49.668;8.544;2024-01-15T00:05:48;42.95;;;9.80;;
83719;SDS011;73702;49.668;8.544;2024-01-15T00:08:14;44.72;;;10.15;;
83719;SDS011;73702;49.668;8.544;2024-01-15T00:10:41;43.60;;;10.20;;
83719;SDS011;73702;49.668;8.544;2024-01-15T00:13:07;55.10;;;9.93;;
83719;SDS011;73702;49.668;8.544;2024-01-15T00:15:34;42.40;;;9.25;;
83719;SDS011;73702;49.668;8.544;2024-01-15T00:18:00;43.03;;;9.02;;
83719;SDS011;73702;49.668;8.544;2024-01-15T00:20:27;50.35;;;10.40;;
83719;SDS011;73702;49.668;8.544;2024-01-15T00:22:56;37.53;;;9.05;;
83719;SDS011;73702;49.668;8.544;2024-01-15T00:25:22;57.83;;;10.65;;
83719;SDS011;73702;49.668;8.544;2024-01-15T00:27:49;42.65;;;10.75;;
83719;SDS011;73702;49.668;8.544;2024-01-15T00:30:16;39.20;;;6.93;;
83719;SDS011;73702;49.668;8.544;2024-01-15T00:32:42;27.25;;;6.85;;
83719;SDS011;73702;49.668;8.544;2024-01-15T00:35:09;35.00;;;8.98;;
83719;SDS011;73702;49.668;8.544;2024-01-15T00:37:36;40.33;;;10.00;;
83719;SDS011;73702;49.668;8.544;2024-01-15T00:40:03;32.55;;;6.38;;
83719;SDS011;73702;49.668;8.544;2024-01-15T00:42:30;53.63;;;10.57;;
83719;SDS011;73702;49.668;8.544;2024-01-15T00:44:57;39.22;;;8.45;;
83719;SDS011;73702;49.668;8.544;2024-01-15T00:47:23;49.85;;;10.07;;
83719;SDS011;73702;49.668;8.544;2024-01-15T00:49:50;45.88;;;12.15;;
83719;SDS011;73702;49.668;8.544;2024-01-15T00:52:16;38.67;;;9.57;;
83719;SDS011;73702;49.668;8.544;2024-01-15T00:54:43;33.45;;;8.13;;
83719;SDS011;73702;49.668;8.544;2024-01-15T00:57:09;46.40;;;10.13;;
83719;SDS011;73702;49.668;8.544;2024-01-15T00:59:37;60.70;;;13.02;;
83719;SDS011;73702;49.668;8.544;2024-01-15T01:02:03;47.40;;;11.15;;
83719;SDS011;73702;49.668;8.544;2024-01-15T01:04:30;52.97;;;10.82;;
83719;SDS011;73702;49.668;8.544;2024-01-15T01:06:56;39.45;;;9.57;;
83719;SDS011;73702;49.668;8.544;2024-01-15T01:09:23;46.83;;;10.55;;
83719;SDS011;73702;49.668;8.544;2024-01-15T01:11:50;49.00;;;10.30;;
83719;SDS011;73702;49.668;8.544;2024-01-15T01:14:16;41.17;;;10.65;;
83719;SDS011;73702;49.668;8.544;2024-01-15T01:16:43;35.58;;;9.60;;
83719;SDS011;73702;49.668;8.544;2024-01-15T01:19:09;52.72;;;11.35;;
83719;SDS011;73702;49.668;8.544;2024-01-15T01:21:36;51.55;;;10.57;;
83719;SDS011;73702;49.668;8.544;2024-01-15T01:24:02;38.58;;;9.18;;
83719;SDS011;73702;49.668;8.544;2024-01-15T01:26:29;47.63;;;10.73;;
83719;SDS011;73702;49.668;8.544;2024-01-15T01:28:56;34.70;;;9.30;;
83719;SDS011;73702;49.668;8.544;2024-01-15T01:31:23;41.33;;;9.73;;
83719;SDS011;73702;49.668;8.544;2024-01-15T01:33:49;49.30;;;8.98;;
83719;SDS011;73702;49.668;8.544;2024-01-15T01:36:16;34.05;;;6.75;;
83719;SDS011;73702;49.668;8.544;2024-01-15T01:38:42;34.47;;;8.43;;
83719;SDS011;73702;49.668;8.544;2024-01-15T01:41:08;43.92;;;8.63;;
83719;SDS011;73702;49.668;8.544;2024-01-15T01:43:35;51.72;;;10.00;;
83719;SDS011;73702;49.668;8.544;2024-01-15T01:46:01;34.88;;;8.40;;
83719;SDS011;73702;49.668;8.544;2024-01-15T01:48:29;50.05;;;9.95;;
83719;SDS011;73702;49.668;8.544;2024-01-15T01:51:00;44.15;;;9.50;;
83719;SDS011;73702;49.668;8.544;2024-01-15T01:53:28;44.80;;;9.32;;
83719;SDS011;73702;49.668;8.544;2024-01-15T01:55:55;39.22;;;8.80;;
83719;SDS011;73702;49.668;8.544;2024-01-15T01:58:22;38.13;;;8.50;;
83719;SDS011;73702;49.668;8.544;2024-01-15T02:00:49;39.08;;;9.15;;
83719;SDS011;73702;49.668;8.544;2024-01-15T02:03:16;42.03;;;8.80;;
83719;SDS011;73702;49.668;8.544;2024-01-15T02:05:42;45.08;;;9.80;;
83719;SDS011;73702;49.668;8.544;2024-01-15T02:08:09;43.08;;;9.00;;
83719;SDS011;73702;49.668;8.544;2024-01-15T02:10:36;40.28;;;7.45;;
83719;SDS011;73702;49.668;8.544;2024-01-15T02:13:02;42.53;;;8.57;;
83719;SDS011;73702;49.668;8.544;2024-01-15T02:15:29;36.58;;;8.40;;
83719;SDS011;73702;49.668;8.544;2024-01-15T02:18:02;39.90;;;7.93;;
83719;SDS011;73702;49.668;8.544;2024-01-15T02:25:22;42.30;;;8.25;;
83719;SDS011;73702;49.668;8.544;2024-01-15T02:27:49;34.20;;;8.07;;
83719;SDS011;73702;49.668;8.544;2024-01-15T02:30:16;35.30;;;7.80;;
83719;SDS011;73702;49.668;8.544;2024-01-15T02:32:43;47.42;;;9.88;;
83719;SDS011;73702;49.668;8.544;2024-01-15T02:35:09;34.70;;;8.63;;
83719;SDS011;73702;49.668;8.544;2024-01-15T02:37:36;42.47;;;8.88;;
83719;SDS011;73702;49.668;8.544;2024-01-15T02:40:03;35.67;;;7.80;;
83719;SDS011;73702;49.668;8.544;2024-01-15T02:42:29;46.22;;;8.88;;
83719;SDS011;73702;49.668;8.544;2024-01-15T02:44:56;39.42;;;8.98;;
83719;SDS011;73702;49.668;8.544;2024-01-15T02:47:22;33.90;;;8.55;;
83719;SDS011;73702;49.668;8.544;2024-01-15T02:49:50;43.08;;;8.63;;
83719;SDS011;73702;49.668;8.544;2024-01-15T02:52:17;33.22;;;8.05;;
83719;SDS011;73702;49.668;8.544;2024-01-15T02:54:43;55.88;;;10.32;;
83719;SDS011;73702;49.668;8.544;2024-01-15T02:57:10;36.78;;;8.95;;
83719;SDS011;73702;49.668;8.544;2024-01-15T02:59:36;41.45;;;8.07;;
83719;SDS011;73702;49.668;8.544;2024-01-15T03:02:03;40.80;;;8.98;;
83719;SDS011;73702;49.668;8.544;2024-01-15T03:04:30;51.55;;;9.75;;
83719;SDS011;73702;49.668;8.544;2024-01-15T03:06:57;39.63;;;9.18;;
83719;SDS011;73702;49.668;8.544;2024-01-15T03:09:23;32.80;;;8.52;;
83719;SDS011;73702;49.668;8.544;2024-01-15T03:11:50;49.63;;;9.70;;
83719;SDS011;73702;49.668;8.544;2024-01-15T03:14:16;38.38;;;8.07;;
83719;SDS011;73702;49.668;8.544;2024-01-15T03:16:43;55.50;;;10.18;;
83719;SDS011;73702;49.668;8.544;2024-01-15T03:19:09;38.35;;;7.68;;
83719;SDS011;73702;49.668;8.544;2024-01-15T03:21:35;41.35;;;8.60;;
83719;SDS011;73702;49.668;8.544;2024-01-15T03:24:02;45.42;;;9.10;;
83719;SDS011;73702;49.668;8.544;2024-01-15T03:26:29;45.95;;;9.15;;
83719;SDS011;73702;49.668;8.544;2024-01-15T03:28:55;28.98;;;8.00;;
83719;SDS011;73702;49.668;8.544;2024-01-15T03:31:22;39.72;;;8.80;;
83719;SDS011;73702;49.668;8.544;2024-01-15T03:33:48;54.08;;;10.50;;
83719;SDS011;73702;49.668;8.544;2024-01-15T03:36:15;39.92;;;8.05;;
83719;SDS011;73702;49.668;8.544;2024-01-15T03:38:42;44.92;;;8.10;;
83719;SDS011;73702;49.668;8.544;2024-01-15T03:41:08;41.90;;;8.55;;
83719;SDS011;73702;49.668;8.544;2024-01-15T03:43:34;42.10;;;8.02;;
83719;SDS011;73702;49.668;8.544;2024-01-15T03:46:01;40.58;;;8.32;;
83719;SDS011;73702;49.668;8.544;2024-01-15T03:48:28;33.85;;;7.78;;
83719;SDS011;73702;49.668;8.544;2024-01-15T03:50:54;30.08;;;6.85;;
83719;SDS011;73702;49.668;8.544;2024-01-15T03:53:21;37.92;;;8.80;;
83719;SDS011;73702;49.668;8.544;2024-01-15T03:55:47;44.38;;;8.65;;
83719;SDS011;73702;49.668;8.544;2024-01-15T03:58:14;33.15;;;7.68;;
83719;SDS011;73702;49.668;8.544;2024-01-15T04:00:41;43.78;;;8.10;;
83719;SDS011;73702;49.668;8.544;2024-01-15T04:03:07;38.10;;;7.18;;
83719;SDS011;73702;49.668;8.544;2024-01-15T04:05:34;40.42;;;7.78;;
83719;SDS011;73702;49.668;8.544;2024-01-15T04:08:01;37.38;;;8.13;;
83719;SDS011;73702;49.668;8.544;2024-01-15T04:10:27;30.60;;;7.03;;
83719;SDS011;73702;49.668;8.544;2024-01-15T04:12:54;49.28;;;8.70;;
83719;SDS011;73702;49.668;8.544;2024-01-15T04:15:20;40.17;;;8.50;;
83719;SDS011;73702;49.668;8.544;2024-01-15T04:17:47;51.22;;;10.10;;
83719;SDS011;73702;49.668;8.544;2024-01-15T04:20:13;39.03;;;8.98;;
83719;SDS011;73702;49.668;8.544;2024-01-15T04:22:40;41.78;;;8.95;;
83719;SDS011;73702;49.668;8.544;2024-01-15T04:25:07;34.38;;;8.40;;
83719;SDS011;73702;49.668;8.544;2024-01-15T04:27:33;35.60;;;7.30;;
83719;SDS011;73702;49.668;8.544;2024-01-15T04:30:00;44.35;;;8.93;;
83719;SDS011;73702;49.668;8.544;2024-01-15T04:32:26;53.08;;;9.43;;
83719;SDS011;73702;49.668;8.544;2024-01-15T04:34:53;41.13;;;8.65;;
83719;SDS011;73702;49.668;8.544;2024-01-15T04:37:19;34.05;;;7.25;;
83719;SDS011;73702;49.668;8.544;2024-01-15T04:39:46;47.60;;;8.75;;
83719;SDS011;73702;49.668;8.544;2024-01-15T04:42:12;35.85;;;8.02;;
83719;SDS011;73702;49.668;8.544;2024-01-15T04:44:39;39.22;;;8.68;;
83719;SDS011;73702;49.668;8.544;2024-01-15T04:47:05;40.88;;;7.72;;
83719;SDS011;73702;49.668;8.544;2024-01-15T04:49:32;45.42;;;8.02;;
83719;SDS011;73702;49.668;8.544;2024-01-15T04:51:59;44.58;;;8.65;;
83719;SDS011;73702;49.668;8.544;2024-01-15T04:54:25;36.28;;;8.40;;
83719;SDS011;73702;49.668;8.544;2024-01-15T04:56:52;40.50;;;8.68;;
83719;SDS011;73702;49.668;8.544;2024-01-15T04:59:18;42.03;;;7.90;;
83719;SDS011;73702;49.668;8.544;2024-01-15T05:01:45;48.92;;;8.95;;
83719;SDS011;73702;49.668;8.544;2024-01-15T05:04:11;40.40;;;7.63;;
83719;SDS011;73702;49.668;8.544;2024-01-15T05:06:38;30.83;;;6.78;;
83719;SDS011;73702;49.668;8.544;2024-01-15T05:09:04;38.17;;;8.27;;
83719;SDS011;73702;49.668;8.544;2024-01-15T05:11:31;38.72;;;7.68;;
83719;SDS011;73702;49.668;8.544;2024-01-15T05:13:57;52.38;;;9.10;;
83719;SDS011;73702;49.668;8.544;2024-01-15T05:16:24;39.58;;;8.35;;
83719;SDS011;73702;49.668;8.544;2024-01-15T05:18:50;37.60;;;8.20;;
83719;SDS011;73702;49.668;8.544;2024-01-15T05:21:17;34.33;;;7.45;;
83719;SDS011;73702;49.668;8.544;2024-01-15T05:23:44;35.80;;;8.05;;
83719;SDS011;73702;49.668;8.544;2024-01-15T05:26:10;39.85;;;8.00;;
83719;SDS011;73702;49.668;8.544;2024-01-15T05:28:37;40.60;;;8.48;;
83719;SDS011;73702;49.668;8.544;2024-01-15T05:31:03;45.63;;;9.77;;
83719;SDS011;73702;49.668;8.544;2024-01-15T05:33:30;32.15;;;7.03;;
83719;SDS011;73702;49.668;8.544;2024-01-15T05:35:57;47.30;;;7.93;;
83719;SDS011;73702;49.668;8.544;2024-01-15T05:38:23;32.88;;;7.35;;
83719;SDS011;73702;49.668;8.544;2024-01-15T05:40:50;44.78;;;8.02;;
83719;SDS011;73702;49.668;8.544;2024-01-15T05:43:16;43.55;;;8.02;;
83719;SDS011;73702;49.668;8.544;2024-01-15T05:45:43;39.85;;;8.43;;
83719;SDS011;73702;49.668;8.544;2024-01-15T05:48:10;40.58;;;8.00;;
83719;SDS011;73702;49.668;8.544;2024-01-15T05:50:36;41.05;;;8.65;;
83719;SDS011;73702;49.668;8.544;2024-01-15T05:53:03;48.53;;;8.80;;
83719;SDS011;73702;49.668;8.544;2024-01-15T05:55:29;48.20;;;8.40;;
83719;SDS011;73702;49.668;8.544;2024-01-15T05:57:56;51.83;;;8.52;;
83719;SDS011;73702;49.668;8.544;2024-01-15T06:00:22;36.95;;;7.60;;
83719;SDS011;73702;49.668;8.544;2024-01-15T06:02:49;36.35;;;7.88;;
83719;SDS011;73702;49.668;8.544;2024-01-15T06:05:15;38.90;;;8.90;;
83719;SDS011;73702;49.668;8.544;2024-01-15T06:07:42;43.80;;;8.32;;
83719;SDS011;73702;49.668;8.544;2024-01-15T06:10:08;52.88;;;10.18;;
83719;SDS011;73702;49.668;8.544;2024-01-15T06:12:35;38.47;;;8.02;;
83719;SDS011;73702;49.668;8.544;2024-01-15T06:15:01;46.25;;;9.23;;
83719;SDS011;73702;49.668;8.544;2024-01-15T06:17:28;41.65;;;9.05;;
83719;SDS011;73702;49.668;8.544;2024-01-15T06:19:54;42.13;;;9.55;;
83719;SDS011;73702;49.668;8.544;2024-01-15T06:22:21;35.22;;;8.73;;
83719;SDS011;73702;49.668;8.544;2024-01-15T06:24:47;38.80;;;8.52;;
83719;SDS011;73702;49.668;8.544;2024-01-15T06:27:14;32.60;;;7.45;;
83719;SDS011;73702;49.668;8.544;2024-01-15T06:29:44;34.28;;;7.05;;
83719;SDS011;73702;49.668;8.544;2024-01-15T06:32:10;50.75;;;8.52;;
83719;SDS011;73702;49.668;8.544;2024-01-15T06:34:37;37.33;;;9.88;;
83719;SDS011;73702;49.668;8.544;2024-01-15T06:37:04;57.65;;;9.35;;
83719;SDS011;73702;49.668;8.544;2024-01-15T06:39:30;31.70;;;6.93;;
83719;SDS011;73702;49.668;8.544;2024-01-15T06:41:57;35.45;;;8.52;;
83719;SDS011;73702;49.668;8.544;2024-01-15T06:44:23;39.42;;;8.13;;
83719;SDS011;73702;49.668;8.544;2024-01-15T06:46:49;42.88;;;9.38;;
83719;SDS011;73702;49.668;8.544;2024-01-15T06:49:16;34.00;;;7.28;;
83719;SDS011;73702;49.668;8.544;2024-01-15T06:51:42;41.80;;;8.18;;
83719;SDS011;73702;49.668;8.544;2024-01-15T06:54:12;48.17;;;8.68;;
83719;SDS011;73702;49.668;8.544;2024-01-15T06:56:39;38.88;;;8.93;;
83719;SDS011;73702;49.668;8.544;2024-01-15T06:59:05;39.22;;;8.32;;
83719;SDS011;73702;49.668;8.544;2024-01-15T07:01:32;42.67;;;9.05;;
83719;SDS011;73702;49.668;8.544;2024-01-15T07:03:58;37.30;;;7.32;;
83719;SDS011;73702;49.668;8.544;2024-01-15T07:06:25;42.30;;;8.48;;
83719;SDS011;73702;49.668;8.544;2024-01-15T07:08:52;36.08;;;8.32;;
83719;SDS011;73702;49.668;8.544;2024-01-15T07:11:18;37.03;;;8.32;;
83719;SDS011;73702;49.668;8.544;2024-01-15T07:13:45;32.72;;;7.65;;
83719;SDS011;73702;49.668;8.544;2024-01-15T07:16:11;48.47;;;8.98;;
83719;SDS011;73702;49.668;8.544;2024-01-15T07:18:38;51.97;;;9.35;;
83719;SDS011;73702;49.668;8.544;2024-01-15T07:21:05;47.30;;;9.10;;
83719;SDS011;73702;49.668;8.544;2024-01-15T07:23:31;38.05;;;7.95;;
83719;SDS011;73702;49.668;8.544;2024-01-15T07:25:58;35.67;;;7.60;;
83719;SDS011;73702;49.668;8.544;2024-01-15T07:28:25;38.60;;;8.43;;
83719;SDS011;73702;49.668;8.544;2024-01-15T07:30:51;38.22;;;8.45;;
83719;SDS011;73702;49.668;8.544;2024-01-15T07:33:18;49.15;;;8.75;;
83719;SDS011;73702;49.668;8.544;2024-01-15T07:35:45;29.55;;;6.35;;
83719;SDS011;73702;49.668;8.544;2024-01-15T07:38:11;44.65;;;9.10;;
83719;SDS011;73702;49.668;8.544;2024-01-15T07:40:38;19.48;;;5.88;;
83719;SDS011;73702;49.668;8.544;2024-01-15T07:43:04;31.70;;;8.00;;
83719;SDS011;73702;49.668;8.544;2024-01-15T07:45:31;40.38;;;8.90;;
83719;SDS011;73702;49.668;8.544;2024-01-15T07:47:58;38.90;;;8.43;;
83719;SDS011;73702;49.668;8.544;2024-01-15T07:50:25;36.10;;;7.65;;
83719;SDS011;73702;49.668;8.544;2024-01-15T07:52:51;33.42;;;7.65;;
83719;SDS011;73702;49.668;8.544;2024-01-15T07:55:18;52.20;;;8.77;;
83719;SDS011;73702;49.668;8.544;2024-01-15T07:57:44;36.58;;;8.60;;
83719;SDS011;73702;49.668;8.544;2024-01-15T08:00:21;47.25;;;9.43;;
83719;SDS011;73702;49.668;8.544;2024-01-15T08:02:47;39.67;;;7.93;;
83719;SDS011;73702;49.668;8.544;2024-01-15T08:05:14;46.28;;;8.30;;
83719;SDS011;73702;49.668;8.544;2024-01-15T08:07:40;34.20;;;7.13;;
83719;SDS011;73702;49.668;8.544;2024-01-15T08:10:07;45.53;;;8.32;;
83719;SDS011;73702;49.668;8.544;2024-01-15T08:12:34;37.30;;;8.27;;
83719;SDS011;73702;49.668;8.544;2024-01-15T08:15:00;36.08;;;7.82;;
83719;SDS011;73702;49.668;8.544;2024-01-15T08:17:27;33.30;;;7.10;;
83719;SDS011;73702;49.668;8.544;2024-01-15T08:19:54;42.92;;;9.25;;
83719;SDS011;73702;49.668;8.544;2024-01-15T08:22:20;50.22;;;8.85;;
83719;SDS011;73702;49.668;8.544;2024-01-15T08:24:47;28.08;;;8.40;;
83719;SDS011;73702;49.668;8.544;2024-01-15T08:27:14;42.67;;;8.43;;
83719;SDS011;73702;49.668;8.544;2024-01-15T08:29:40;41.15;;;8.35;;
83719;SDS011;73702;49.668;8.544;2024-01-15T08:32:07;36.13;;;7.80;;
83719;SDS011;73702;49.668;8.544;2024-01-15T08:34:33;35.13;;;7.63;;
83719;SDS011;73702;49.668;8.544;2024-01-15T08:37:00;36.85;;;8.35;;
83719;SDS011;73702;49.668;8.544;2024-01-15T08:39:26;47.78;;;9.60;;
83719;SDS011;73702;49.668;8.544;2024-01-15T08:41:53;37.65;;;8.15;;
83719;SDS011;73702;49.668;8.544;2024-01-15T08:44:19;40.30;;;8.57;;
83719;SDS011;73702;49.668;8.544;2024-01-15T08:46:46;36.97;;;8.48;;
83719;SDS011;73702;49.668;8.544;2024-01-15T08:49:12;45.35;;;10.30;;
83719;SDS011;73702;49.668;8.544;2024-01-15T08:51:39;41.13;;;9.07;;
83719;SDS011;73702;49.668;8.544;2024-01-15T08:54:05;48.63;;;9.52;;
83719;SDS011;73702;49.668;8.544;2024-01-15T08:56:32;52.63;;;10.18;;
83719;SDS011;73702;49.668;8.544;2024-01-15T08:59:00;38.50;;;8.82;;
83719;SDS011;73702;49.668;8.544;2024-01-15T09:01:26;37.78;;;8.77;;
83719;SDS011;73702;49.668;8.544;2024-01-15T09:03:53;34.65;;;8.07;;
83719;SDS011;73702;49.668;8.544;2024-01-15T09:06:20;46.20;;;8.60;;
83719;SDS011;73702;49.668;8.544;2024-01-15T09:08:46;32.58;;;7.65;;
83719;SDS011;73702;49.668;8.544;2024-01-15T09:11:13;38.22;;;8.60;;
83719;SDS011;73702;49.668;8.544;2024-01-15T09:13:39;38.58;;;8.45;;
83719;SDS011;73702;49.668;8.544;2024-01-15T09:16:06;34.97;;;8.43;;
83719;SDS011;73702;49.668;8.544;2024-01-15T09:18:33;28.15;;;7.80;;
83719;SDS011;73702;49.668;8.544;2024-01-15T09:21:00;29.73;;;6.88;;
83719;SDS011;73702;49.668;8.544;2024-01-15T09:23:28;52.28;;;11.57;;
83719;SDS011;73702;49.668;8.544;2024-01-15T09:25:55;29.80;;;7.78;;
83719;SDS011;73702;49.668;8.544;2024-01-15T09:28:22;45.03;;;8.07;;
83719;SDS011;73702;49.668;8.544;2024-01-15T09:30:48;30.48;;;7.07;;
83719;SDS011;73702;49.668;8.544;2024-01-15T09:33:15;36.50;;;7.80;;
83719;SDS011;73702;49.668;8.544;2024-01-15T09:35:42;29.58;;;7.00;;
83719;SDS011;73702;49.668;8.544;2024-01-15T09:38:08;34.30;;;8.45;;
83719;SDS011;73702;49.668;8.544;2024-01-15T09:40:35;43.17;;;9.32;;
83719;SDS011;73702;49.668;8.544;2024-01-15T09:43:04;34.92;;;8.63;;
83719;SDS011;73702;49.668;8.544;2024-01-15T09:45:31;39.85;;;8.50;;
83719;SDS011;73702;49.668;8.544;2024-01-15T09:47:57;36.70;;;8.20;;
83719;SDS011;73702;49.668;8.544;2024-01-15T09:50:24;46.42;;;9.55;;
83719;SDS011;73702;49.668;8.544;2024-01-15T09:52:50;36.33;;;7.93;;
83719;SDS011;73702;49.668;8.544;2024-01-15T09:55:17;28.15;;;6.80;;
83719;SDS011;73702;49.668;8.544;2024-01-15T09:57:44;32.38;;;7.50;;
83719;SDS011;73702;49.668;8.544;2024-01-15T10:00:11;31.98;;;7.05;;
83719;SDS011;73702;49.668;8.544;2024-01-15T10:02:38;36.17;;;8.60;;
83719;SDS011;73702;49.668;8.544;2024-01-15T10:05:04;26.63;;;6.53;;
83719;SDS011;73702;49.668;8.544;2024-01-15T10:07:32;47.75;;;8.38;;
83719;SDS011;73702;49.668;8.544;2024-01-15T10:10:01;28.38;;;7.30;;
83719;SDS011;73702;49.668;8.544;2024-01-15T10:12:28;29.92;;;6.70;;
83719;SDS011;73702;49.668;8.544;2024-01-15T10:14:55;29.40;;;6.93;;
83719;SDS011;73702;49.668;8.544;2024-01-15T10:17:22;26.50;;;6.60;;
83719;SDS011;73702;49.668;8.544;2024-01-15T10:19:50;35.05;;;7.95;;
83719;SDS011;73702;49.668;8.544;2024-01-15T10:22:16;35.17;;;6.80;;
83719;SDS011;73702;49.668;8.544;2024-01-15T10:24:43;32.78;;;7.35;;
83719;SDS011;73702;49.668;8.544;2024-01-15T10:27:10;31.17;;;6.80;;
83719;SDS011;73702;49.668;8.544;2024-01-15T10:29:36;37.83;;;7.50;;
83719;SDS011;73702;49.668;8.544;2024-01-15T10:32:06;23.65;;;7.22;;
83719;SDS011;73702;49.668;8.544;2024-01-15T10:34:33;41.03;;;7.88;;
83719;SDS011;73702;49.668;8.544;2024-01-15T10:37:00;26.27;;;5.97;;
83719;SDS011;73702;49.668;8.544;2024-01-15T10:39:27;31.02;;;7.80;;
83719;SDS011;73702;49.668;8.544;2024-01-15T10:41:54;34.10;;;6.90;;
83719;SDS011;73702;49.668;8.544;2024-01-15T10:44:20;26.55;;;7.15;;
83719;SDS011;73702;49.668;8.544;2024-01-15T10:46:46;31.55;;;6.72;;
83719;SDS011;73702;49.668;8.544;2024-01-15T10:49:13;26.08;;;4.50;;
83719;SDS011;73702;49.668;8.544;2024-01-15T10:51:41;43.28;;;9.07;;
83719;SDS011;73702;49.668;8.544;2024-01-15T10:54:09;25.10;;;7.05;;
83719;SDS011;73702;49.668;8.544;2024-01-15T10:56:35;39.53;;;7.65;;
83719;SDS011;73702;49.668;8.544;2024-01-15T10:59:02;25.85;;;6.88;;
83719;SDS011;73702;49.668;8.544;2024-01-15T11:01:30;32.38;;;7.32;;
83719;SDS011;73702;49.668;8.544;2024-01-15T11:03:56;31.63;;;7.15;;
83719;SDS011;73702;49.668;8.544;2024-01-15T11:06:24;27.52;;;7.25;;
83719;SDS011;73702;49.668;8.544;2024-01-15T11:08:51;27.05;;;6.00;;
83719;SDS011;73702;49.668;8.544;2024-01-15T11:11:18;29.80;;;7.03;;
83719;SDS011;73702;49.668;8.544;2024-01-15T11:13:48;37.50;;;6.55;;
83719;SDS011;73702;49.668;8.544;2024-01-15T11:16:14;30.90;;;6.97;;
83719;SDS011;73702;49.668;8.544;2024-01-15T11:18:41;43.85;;;8.20;;
83719;SDS011;73702;49.668;8.544;2024-01-15T11:23:42;49.78;;;8.13;;
83719;SDS011;73702;49.668;8.544;2024-01-15T11:26:26;21.15;;;4.93;;
83719;SDS011;73702;49.668;8.544;2024-01-15T11:28:54;37.53;;;8.63;;
83719;SDS011;73702;49.668;8.544;2024-01-15T11:36:14;25.17;;;5.70;;
83719;SDS011;73702;49.668;8.544;2024-01-15T11:38:41;38.70;;;7.32;;
83719;SDS011;73702;49.668;8.544;2024-01-15T11:41:14;30.23;;;6.32;;
83719;SDS011;73702;49.668;8.544;2024-01-15T11:43:40;36.53;;;5.68;;
83719;SDS011;73702;49.668;8.544;2024-01-15T11:46:10;28.05;;;6.10;;
83719;SDS011;73702;49.668;8.544;2024-01-15T11:48:42;40.65;;;8.13;;
83719;SDS011;73702;49.668;8.544;2024-01-15T11:51:10;24.02;;;6.00;;
83719;SDS011;73702;49.668;8.544;2024-01-15T11:53:47;38.70;;;7.55;;
83719;SDS011;73702;49.668;8.544;2024-01-15T11:56:17;31.23;;;7.95;;
83719;SDS011;73702;49.668;8.544;2024-01-15T11:58:44;41.08;;;8.80;;
83719;SDS011;73702;49.668;8.544;2024-01-15T12:01:11;29.20;;;8.30;;
83719;SDS011;73702;49.668;8.544;2024-01-15T12:03:38;44.35;;;7.20;;
83719;SDS011;73702;49.668;8.544;2024-01-15T12:06:05;23.40;;;6.20;;
83719;SDS011;73702;49.668;8.544;2024-01-15T12:08:31;36.63;;;8.25;;
83719;SDS011;73702;49.668;8.544;2024-01-15T12:10:58;29.08;;;7.75;;
83719;SDS011;73702;49.668;8.544;2024-01-15T12:13:25;42.90;;;8.18;;
83719;SDS011;73702;49.668;8.544;2024-01-15T12:15:54;31.90;;;6.40;;
83719;SDS011;73702;49.668;8.544;2024-01-15T12:18:20;28.50;;;7.00;;
83719;SDS011;73702;49.668;8.544;2024-01-15T12:20:47;45.28;;;7.75;;
83719;SDS011;73702;49.668;8.544;2024-01-15T12:23:14;27.48;;;6.45;;
83719;SDS011;73702;49.668;8.544;2024-01-15T12:25:41;39.58;;;7.38;;
83719;SDS011;73702;49.668;8.544;2024-01-15T12:28:08;29.02;;;6.82;;
83719;SDS011;73702;49.668;8.544;2024-01-15T12:30:35;27.83;;;6.63;;
83719;SDS011;73702;49.668;8.544;2024-01-15T12:33:02;27.52;;;6.07;;
83719;SDS011;73702;49.668;8.544;2024-01-15T12:35:28;31.08;;;6.15;;
83719;SDS011;73702;49.668;8.544;2024-01-15T12:37:55;28.25;;;5.20;;
83719;SDS011;73702;49.668;8.544;2024-01-15T12:40:22;19.08;;;5.03;;
83719;SDS011;73702;49.668;8.544;2024-01-15T12:42:49;35.38;;;7.25;;
83719;SDS011;73702;49.668;8.544;2024-01-15T12:45:15;25.83;;;5.05;;
83719;SDS011;73702;49.668;8.544;2024-01-15T12:47:42;32.42;;;5.95;;
83719;SDS011;73702;49.668;8.544;2024-01-15T12:50:09;33.42;;;6.35;;
83719;SDS011;73702;49.668;8.544;2024-01-15T12:52:45;33.03;;;6.65;;
83719;SDS011;73702;49.668;8.544;2024-01-15T12:55:11;24.80;;;6.40;;
83719;SDS011;73702;49.668;8.544;2024-01-15T12:57:38;30.30;;;7.22;;
83719;SDS011;73702;49.668;8.544;2024-01-15T13:00:05;26.55;;;6.78;;
83719;SDS011;73702;49.668;8.544;2024-01-15T13:02:34;36.85;;;7.43;;
83719;SDS011;73702;49.668;8.544;2024-01-15T13:05:00;25.88;;;6.70;;
83719;SDS011;73702;49.668;8.544;2024-01-15T13:07:27;27.73;;;6.15;;
83719;SDS011;73702;49.668;8.544;2024-01-15T13:09:54;33.28;;;5.25;;
83719;SDS011;73702;49.668;8.544;2024-01-15T13:12:20;24.13;;;5.05;;
83719;SDS011;73702;49.668;8.544;2024-01-15T13:14:47;31.20;;;6.05;;
83719;SDS011;73702;49.668;8.544;2024-01-15T13:17:13;29.70;;;6.70;;
83719;SDS011;73702;49.668;8.544;2024-01-15T13:19:41;30.60;;;6.07;;
83719;SDS011;73702;49.668;8.544;2024-01-15T13:22:07;25.65;;;5.38;;
83719;SDS011;73702;49.668;8.544;2024-01-15T13:24:33;25.88;;;6.00;;
83719;SDS011;73702;49.668;8.544;2024-01-15T13:27:00;30.13;;;6.03;;
83719;SDS011;73702;49.668;8.544;2024-01-15T13:29:26;26.08;;;6.35;;
83719;SDS011;73702;49.668;8.544;2024-01-15T13:31:53;42.13;;;7.20;;
83719;SDS011;73702;49.668;8.544;2024-01-15T13:34:19;25.55;;;5.72;;
83719;SDS011;73702;49.668;8.544;2024-01-15T13:36:46;26.70;;;6.05;;
83719;SDS011;73702;49.668;8.544;2024-01-15T13:39:13;23.08;;;5.95;;
83719;SDS011;73702;49.668;8.544;2024-01-15T13:41:40;27.25;;;6.15;;
83719;SDS011;73702;49.668;8.544;2024-01-15T13:44:06;23.40;;;5.35;;
83719;SDS011;73702;49.668;8.544;2024-01-15T13:46:33;29.48;;;6.35;;
83719;SDS011;73702;49.668;8.544;2024-01-15T13:48:59;38.17;;;6.55;;
83719;SDS011;73702;49.668;8.544;2024-01-15T13:51:26;32.50;;;6.30;;
83719;SDS011;73702;49.668;8.544;2024-01-15T13:53:52;35.58;;;5.60;;
83719;SDS011;73702;49.668;8.544;2024-01-15T13:56:19;23.80;;;5.18;;
83719;SDS011;73702;49.668;8.544;2024-01-15T13:58:46;23.58;;;5.32;;
83719;SDS011;73702;49.668;8.544;2024-01-15T14:01:13;23.88;;;4.55;;
83719;SDS011;73702;49.668;8.544;2024-01-15T14:03:39;19.70;;;4.90;;
83719;SDS011;73702;49.668;8.544;2024-01-15T14:06:06;23.38;;;4.80;;
83719;SDS011;73702;49.668;8.544;2024-01-15T14:08:33;18.02;;;3.15;;
83719;SDS011;73702;49.668;8.544;2024-01-15T14:11:00;34.50;;;5.45;;
83719;SDS011;73702;49.668;8.544;2024-01-15T14:13:27;32.47;;;5.20;;
83719;SDS011;73702;49.668;8.544;2024-01-15T14:15:53;31.27;;;5.28;;
83719;SDS011;73702;49.668;8.544;2024-01-15T14:18:20;26.27;;;5.00;;
83719;SDS011;73702;49.668;8.544;2024-01-15T14:20:49;22.67;;;4.22;;
83719;SDS011;73702;49.668;8.544;2024-01-15T14:23:15;26.08;;;4.03;;
83719;SDS011;73702;49.668;8.544;2024-01-15T14:25:42;22.77;;;4.65;;
83719;SDS011;73702;49.668;8.544;2024-01-15T14:28:09;25.30;;;3.95;;
83719;SDS011;73702;49.668;8.544;2024-01-15T14:30:35;27.05;;;4.72;;
83719;SDS011;73702;49.668;8.544;2024-01-15T14:33:02;24.00;;;3.72;;
83719;SDS011;73702;49.668;8.544;2024-01-15T14:35:29;23.75;;;4.68;;
83719;SDS011;73702;49.668;8.544;2024-01-15T14:37:55;34.03;;;5.07;;
83719;SDS011;73702;49.668;8.544;2024-01-15T14:40:22;22.95;;;4.25;;
83719;SDS011;73702;49.668;8.544;2024-01-15T14:42:48;23.17;;;4.40;;